createdAt,value
2019-03-21T00:00:50.408Z,98699.25
2019-03-21T00:02:28.435Z,98707.08
2019-03-21T00:04:07.601Z,98700.88
2019-03-21T00:05:43.803Z,98703.64
2019-03-21T00:07:23.075Z,98718.82
2019-03-21T00:08:59.860Z,98716.70
2019-03-21T00:11:27.975Z,98718.89
2019-03-21T00:13:03.950Z,98715.65
2019-03-21T00:15:21.920Z,98714.80
2019-03-21T00:16:57.971Z,98718.69
2019-03-21T00:18:36.051Z,98716.94
2019-03-21T00:20:15.307Z,98728.86
2019-03-21T00:21:51.992Z,98731.78
2019-03-21T00:23:30.692Z,98739.33
2019-03-21T00:25:07.307Z,98742.69
2019-03-21T00:26:43.954Z,98746.13
2019-03-21T00:28:19.827Z,98751.31
2019-03-21T00:29:55.826Z,98754.97
2019-03-21T00:31:31.753Z,98755.54
2019-03-21T00:33:07.638Z,98756.67
2019-03-21T00:34:44.029Z,98756.67
2019-03-21T00:36:21.870Z,98760.72
2019-03-21T00:37:57.897Z,98759.75
2019-03-21T00:39:33.798Z,98769.66
2019-03-21T00:41:10.392Z,98772.15
2019-03-21T00:42:46.602Z,98773.66
2019-03-21T00:44:22.595Z,98771.97
2019-03-21T00:45:58.532Z,98775.13
2019-03-21T00:47:35.314Z,98770.72
2019-03-21T00:49:11.161Z,98774.49
2019-03-21T00:50:51.101Z,98778.50
2019-03-21T00:52:26.844Z,98785.46
2019-03-21T00:54:03.330Z,98788.73
2019-03-21T00:55:39.804Z,98790.03
2019-03-21T00:57:16.028Z,98790.25
2019-03-21T00:58:51.738Z,98788.27
2019-03-21T01:02:40.285Z,98784.45
2019-03-21T01:04:18.679Z,98788.50
2019-03-21T01:05:59.156Z,98787.27
2019-03-21T01:07:41.294Z,98789.41
2019-03-21T01:09:23.430Z,98788.63
2019-03-21T01:11:08.778Z,98781.64
2019-03-21T01:12:51.323Z,98781.77
2019-03-21T01:14:30.727Z,98780.25
2019-03-21T01:16:13.918Z,98769.27
2019-03-21T01:17:55.498Z,98765.15
2019-03-21T01:19:44.220Z,98766.45
2019-03-21T01:21:21.526Z,98774.22
2019-03-21T01:22:59.177Z,98770.39
2019-03-21T01:24:36.468Z,98756.93
2019-03-21T01:26:19.004Z,98753.80
2019-03-21T01:27:56.262Z,98747.65
2019-03-21T01:29:43.344Z,98748.28
2019-03-21T01:31:20.109Z,98747.83
2019-03-21T01:32:58.843Z,98749.23
2019-03-21T01:34:39.275Z,98737.91
2019-03-21T01:36:15.712Z,98736.73
2019-03-21T01:37:52.364Z,98750.69
2019-03-21T01:39:28.463Z,98747.30
2019-03-21T01:41:21.340Z,98752.31
2019-03-21T01:42:57.802Z,98759.58
2019-03-21T01:44:41.328Z,98756.99
2019-03-21T01:46:23.631Z,98763.64
2019-03-21T01:48:05.919Z,98769.83
2019-03-21T01:49:42.058Z,98760.72
2019-03-21T01:51:18.831Z,98768.70
2019-03-21T01:53:00.468Z,98768.03
2019-03-21T01:54:36.779Z,98774.48
2019-03-21T01:56:20.099Z,98776.40
2019-03-21T01:57:56.501Z,98783.27
2019-03-21T01:59:34.674Z,98777.41
2019-03-21T02:01:12.198Z,98783.04
2019-03-21T02:02:49.662Z,98774.38
2019-03-21T02:04:28.101Z,98772.73
2019-03-21T02:06:04.119Z,98771.05
2019-03-21T02:07:42.265Z,98770.38
2019-03-21T02:09:19.245Z,98768.13
2019-03-21T02:10:58.238Z,98770.03
2019-03-21T02:12:35.316Z,98764.86
2019-03-21T02:14:15.267Z,98774.53
2019-03-21T02:15:55.630Z,98774.30
2019-03-21T02:17:33.783Z,98770.70
2019-03-21T02:19:47.471Z,98774.77
2019-03-21T02:21:37.159Z,98772.06
2019-03-21T02:23:13.610Z,98765.80
2019-03-21T02:24:49.726Z,98765.02
2019-03-21T02:26:26.461Z,98766.84
2019-03-21T02:28:02.567Z,98765.61
2019-03-21T02:29:39.098Z,98761.30
2019-03-21T02:31:15.579Z,98763.32
2019-03-21T02:32:53.920Z,98770.41
2019-03-21T02:34:31.083Z,98780.16
2019-03-21T02:36:07.600Z,98782.86
2019-03-21T02:37:43.780Z,98786.23
2019-03-21T02:39:22.002Z,98787.28
2019-03-21T02:40:59.379Z,98787.76
2019-03-21T02:42:35.498Z,98786.86
2019-03-21T02:44:11.769Z,98793.69
2019-03-21T02:45:47.861Z,98793.27
2019-03-21T02:47:24.424Z,98795.41
2019-03-21T02:49:00.187Z,98795.38
2019-03-21T02:50:36.927Z,98794.14
2019-03-21T02:52:12.910Z,98796.61
2019-03-21T02:53:48.921Z,98799.42
2019-03-21T02:55:25.197Z,98810.22
2019-03-21T02:57:01.802Z,98814.58
2019-03-21T02:58:38.720Z,98812.89
2019-03-21T03:00:19.462Z,98817.28
2019-03-21T03:01:55.572Z,98815.70
2019-03-21T03:03:31.938Z,98819.19
2019-03-21T03:05:09.307Z,98822.22
2019-03-21T03:06:45.503Z,98821.13
2019-03-21T03:08:21.346Z,98826.30
2019-03-21T03:09:57.164Z,98823.71
2019-03-21T03:11:32.906Z,98827.31
2019-03-21T03:13:08.711Z,98828.21
2019-03-21T03:14:45.082Z,98831.95
2019-03-21T03:16:22.386Z,98821.81
2019-03-21T03:17:58.314Z,98816.66
2019-03-21T03:19:34.314Z,98813.52
2019-03-21T03:21:10.418Z,98823.73
2019-03-21T03:22:47.196Z,98828.22
2019-03-21T03:24:26.245Z,98833.16
2019-03-21T03:26:02.626Z,98840.81
2019-03-21T03:28:16.501Z,98845.87
2019-03-21T03:29:53.447Z,98844.17
2019-03-21T03:31:32.374Z,98846.45
2019-03-21T03:33:08.462Z,98839.38
2019-03-21T03:34:44.978Z,98847.70
2019-03-21T03:36:21.036Z,98849.48
2019-03-21T03:37:57.650Z,98849.03
2019-03-21T03:39:36.873Z,98847.81
2019-03-21T03:41:11.877Z,98855.56
2019-03-21T03:42:48.900Z,98866.90
2019-03-21T03:44:24.948Z,98870.59
2019-03-21T03:46:01.143Z,98878.81
2019-03-21T03:47:41.239Z,98879.48
2019-03-21T03:49:17.123Z,98882.41
2019-03-21T03:50:53.041Z,98882.85
2019-03-21T03:52:29.727Z,98884.65
2019-03-21T03:54:16.181Z,98886.57
2019-03-21T03:55:52.377Z,98891.18
2019-03-21T03:57:30.334Z,98884.58
2019-03-21T03:59:07.295Z,98873.00
2019-03-21T04:00:43.304Z,98884.23
2019-03-21T04:02:19.491Z,98878.73
2019-03-21T04:03:55.782Z,98884.44
2019-03-21T04:05:31.877Z,98878.27
2019-03-21T04:07:10.566Z,98875.68
2019-03-21T04:08:46.393Z,98869.05
2019-03-21T04:10:34.100Z,98871.73
2019-03-21T04:12:12.911Z,98877.25
2019-03-21T04:13:49.221Z,98878.14
2019-03-21T04:15:25.905Z,98881.31
2019-03-21T04:17:01.910Z,98884.44
2019-03-21T04:18:38.013Z,98885.67
2019-03-21T04:20:15.632Z,98890.64
2019-03-21T04:21:51.451Z,98895.13
2019-03-21T04:23:27.466Z,98901.20
2019-03-21T04:25:04.127Z,98897.14
2019-03-21T04:26:40.289Z,98903.33
2019-03-21T04:28:17.027Z,98897.71
2019-03-21T04:29:53.803Z,98902.98
2019-03-21T04:31:30.370Z,98900.86
2019-03-21T04:33:07.160Z,98909.52
2019-03-21T04:34:44.400Z,98910.87
2019-03-21T04:36:20.781Z,98911.89
2019-03-21T04:37:57.662Z,98925.50
2019-03-21T04:39:34.456Z,98931.00
2019-03-21T04:41:18.956Z,98935.05
2019-03-21T04:42:55.156Z,98937.06
2019-03-21T04:44:31.321Z,98937.30
2019-03-21T04:46:07.277Z,98932.23
2019-03-21T04:47:49.636Z,98934.83
2019-03-21T04:49:26.266Z,98938.88
2019-03-21T04:51:02.451Z,98940.77
2019-03-21T04:52:38.279Z,98943.61
2019-03-21T04:54:14.331Z,98953.15
2019-03-21T04:55:53.148Z,98951.70
2019-03-21T04:57:28.913Z,98949.66
2019-03-21T04:59:04.606Z,98953.39
2019-03-21T05:00:40.620Z,98949.34
2019-03-21T05:02:16.956Z,98951.48
2019-03-21T05:03:52.597Z,98949.57
2019-03-21T05:05:29.661Z,98957.54
2019-03-21T05:07:05.836Z,98953.03
2019-03-21T05:08:41.534Z,98958.44
2019-03-21T05:10:22.957Z,98964.06
2019-03-21T05:11:56.541Z,98967.90
2019-03-21T05:13:33.942Z,98967.09
2019-03-21T05:15:13.620Z,98970.23
2019-03-21T05:16:50.534Z,98969.45
2019-03-21T05:18:37.602Z,98970.47
2019-03-21T05:20:15.821Z,98978.89
2019-03-21T05:21:51.496Z,98977.68
2019-03-21T05:23:33.661Z,98978.01
2019-03-21T05:25:10.608Z,98976.31
2019-03-21T05:26:46.211Z,98982.14
2019-03-21T05:28:22.438Z,98981.02
2019-03-21T05:29:58.115Z,98987.78
2019-03-21T05:31:35.184Z,98996.10
2019-03-21T05:33:10.815Z,98997.92
2019-03-21T05:34:46.464Z,99003.31
2019-03-21T05:36:22.200Z,99005.00
2019-03-21T05:37:58.822Z,99005.55
2019-03-21T05:39:34.812Z,99012.20
2019-03-21T05:41:13.721Z,99016.37
2019-03-21T05:42:59.724Z,99015.02
2019-03-21T05:44:39.521Z,99023.12
2019-03-21T05:46:25.954Z,99020.19
2019-03-21T05:47:52.844Z,99026.83
2019-03-21T05:49:28.642Z,99029.86
2019-03-21T05:51:06.749Z,99032.68
2019-03-21T05:52:42.439Z,99033.80
2019-03-21T05:54:22.553Z,99033.25
2019-03-21T05:56:03.228Z,99037.19
2019-03-21T05:57:39.164Z,99047.33
2019-03-21T05:59:18.206Z,99048.20
2019-03-21T06:00:54.019Z,99045.87
2019-03-21T06:02:35.080Z,99042.70
2019-03-21T06:04:10.913Z,99047.22
2019-03-21T06:05:50.057Z,99047.66
2019-03-21T06:07:34.325Z,99049.33
2019-03-21T06:09:11.300Z,99045.28
2019-03-21T06:10:47.582Z,99055.98
2019-03-21T06:12:23.741Z,99058.92
2019-03-21T06:13:59.443Z,99061.16
2019-03-21T06:15:36.659Z,99068.59
2019-03-21T06:17:13.001Z,99065.89
2019-03-21T06:19:10.724Z,99071.31
2019-03-21T06:20:59.566Z,99074.66
2019-03-21T06:23:32.739Z,99082.33
2019-03-21T06:25:47.927Z,99088.77
2019-03-21T06:27:41.197Z,99103.06
2019-03-21T06:29:18.334Z,99102.03
2019-03-21T06:30:54.817Z,99102.83
2019-03-21T06:32:32.411Z,99106.66
2019-03-21T06:34:08.051Z,99108.13
2019-03-21T06:35:45.295Z,99104.73
2019-03-21T06:37:24.740Z,99103.05
2019-03-21T06:39:00.302Z,99113.17
2019-03-21T06:40:39.408Z,99109.80
2019-03-21T06:42:15.176Z,99106.33
2019-03-21T06:43:51.125Z,99104.84
2019-03-21T06:45:26.898Z,99110.26
2019-03-21T06:47:02.805Z,99113.30
2019-03-21T06:48:38.654Z,99116.12
2019-03-21T06:50:14.833Z,99119.05
2019-03-21T06:51:50.556Z,99126.67
2019-03-21T06:53:26.475Z,99141.88
2019-03-21T06:55:02.930Z,99154.67
2019-03-21T06:56:38.644Z,99172.53
2019-03-21T06:58:14.978Z,99188.68
2019-03-21T06:59:51.696Z,99209.75
2019-03-21T07:01:27.781Z,99235.18
2019-03-21T07:03:03.997Z,99245.11
2019-03-21T07:04:40.112Z,99258.30
2019-03-21T07:06:17.175Z,99275.47
2019-03-21T07:07:54.833Z,99273.37
2019-03-21T07:09:32.496Z,99268.25
2019-03-21T07:11:09.269Z,99264.84
2019-03-21T07:12:45.360Z,99262.89
2019-03-21T07:14:21.388Z,99259.04
2019-03-21T07:15:57.087Z,99253.89
2019-03-21T07:17:32.755Z,99243.22
2019-03-21T07:19:14.538Z,99238.27
2019-03-21T07:20:50.200Z,99222.48
2019-03-21T07:22:25.907Z,99202.98
2019-03-21T07:24:01.570Z,99192.70
2019-03-21T07:25:39.317Z,99184.55
2019-03-21T07:27:21.779Z,99153.81
2019-03-21T07:29:00.397Z,99131.20
2019-03-21T07:30:36.204Z,99113.33
2019-03-21T07:32:14.431Z,99092.74
2019-03-21T07:34:00.348Z,99077.66
2019-03-21T07:35:42.927Z,99064.11
2019-03-21T07:37:19.324Z,99044.02
2019-03-21T07:38:59.012Z,99025.48
2019-03-21T07:40:35.452Z,99005.56
2019-03-21T07:42:11.088Z,98984.01
2019-03-21T07:43:47.168Z,98963.38
2019-03-21T07:45:23.027Z,98939.66
2019-03-21T07:46:58.639Z,98925.15
2019-03-21T07:48:34.730Z,98896.83
2019-03-21T07:50:11.481Z,98866.37
2019-03-21T07:51:51.347Z,98830.03
2019-03-21T07:53:34.262Z,98773.33
2019-03-21T07:55:13.649Z,98719.71
2019-03-21T07:56:53.246Z,98648.35
2019-03-21T07:58:29.390Z,98607.14
2019-03-21T08:00:10.033Z,98558.66
2019-03-21T08:01:46.906Z,98522.82
2019-03-21T08:03:23.473Z,98493.81
2019-03-21T08:04:59.213Z,98474.12
2019-03-21T08:06:34.959Z,98452.06
2019-03-21T08:08:11.214Z,98441.92
2019-03-21T08:09:47.762Z,98430.92
2019-03-21T08:11:24.001Z,98437.28
2019-03-21T08:13:04.456Z,98434.63
2019-03-21T08:14:43.759Z,98432.92
2019-03-21T08:16:33.328Z,98423.44
2019-03-21T08:18:10.705Z,98430.56
2019-03-21T08:19:50.442Z,98429.73
2019-03-21T08:21:29.359Z,98438.16
2019-03-21T08:23:12.383Z,98441.73
2019-03-21T08:24:48.403Z,98446.47
2019-03-21T08:26:24.066Z,98453.49
2019-03-21T08:28:01.739Z,98455.61
2019-03-21T08:29:40.169Z,98459.84
2019-03-21T08:31:19.911Z,98462.09
2019-03-21T08:32:55.718Z,98459.58
2019-03-21T08:34:31.534Z,98472.11
2019-03-21T08:36:10.943Z,98469.87
2019-03-21T08:37:52.649Z,98473.71
2019-03-21T08:39:34.143Z,98475.34
2019-03-21T08:41:14.599Z,98490.84
2019-03-21T08:42:50.413Z,98501.83
2019-03-21T08:44:31.339Z,98504.03
2019-03-21T08:46:10.013Z,98515.33
2019-03-21T08:47:47.330Z,98508.39
2019-03-21T08:49:28.600Z,98512.92
2019-03-21T08:51:08.683Z,98516.80
2019-03-21T08:52:45.916Z,98513.70
2019-03-21T08:54:26.337Z,98517.65
2019-03-21T08:56:02.388Z,98515.32
2019-03-21T08:57:38.778Z,98519.98
2019-03-21T08:59:15.962Z,98520.78
2019-03-21T09:01:01.872Z,98518.22
2019-03-21T09:02:37.644Z,98519.14
2019-03-21T09:04:21.289Z,98510.88
2019-03-21T09:05:59.547Z,98517.55
2019-03-21T09:07:40.260Z,98512.39
2019-03-21T09:09:17.538Z,98511.73
2019-03-21T09:10:58.884Z,98513.81
2019-03-21T09:12:34.454Z,98512.55
2019-03-21T09:14:12.422Z,98519.95
2019-03-21T09:15:52.374Z,98518.33
2019-03-21T09:17:29.491Z,98510.28
2019-03-21T09:19:13.304Z,98506.82
2019-03-21T09:21:00.704Z,98512.19
2019-03-21T09:22:39.485Z,98515.86
2019-03-21T09:24:19.992Z,98516.64
2019-03-21T09:25:59.848Z,98516.30
2019-03-21T09:27:42.849Z,98506.59
2019-03-21T09:29:22.682Z,98508.20
2019-03-21T09:30:58.797Z,98504.67
2019-03-21T09:32:38.433Z,98503.66
2019-03-21T09:34:14.195Z,98503.29
2019-03-21T09:35:52.072Z,98504.00
2019-03-21T09:37:28.278Z,98506.75
2019-03-21T09:39:08.378Z,98508.72
2019-03-21T09:40:49.845Z,98511.74
2019-03-21T09:42:25.749Z,98517.31
2019-03-21T09:44:01.843Z,98519.01
2019-03-21T09:45:37.791Z,98516.42
2019-03-21T09:47:13.712Z,98512.59
2019-03-21T09:48:50.553Z,98528.97
2019-03-21T09:50:30.821Z,98519.34
2019-03-21T09:52:06.401Z,98531.84
2019-03-21T09:53:42.902Z,98534.72
2019-03-21T09:55:19.365Z,98525.06
2019-03-21T09:56:55.811Z,98530.37
2019-03-21T09:58:43.904Z,98542.66
2019-03-21T10:00:31.338Z,98544.94
2019-03-21T10:02:07.262Z,98551.27
2019-03-21T10:03:43.609Z,98552.71
2019-03-21T10:05:26.483Z,98559.56
2019-03-21T10:07:02.752Z,98559.27
2019-03-21T10:08:39.282Z,98563.83
2019-03-21T10:10:18.313Z,98567.41
2019-03-21T10:12:04.673Z,98579.06
2019-03-21T10:13:45.032Z,98576.44
2019-03-21T10:15:23.238Z,98584.36
2019-03-21T10:17:02.864Z,98593.94
2019-03-21T10:18:40.683Z,98586.52
2019-03-21T10:20:18.721Z,98585.47
2019-03-21T10:21:54.444Z,98580.53
2019-03-21T10:23:30.837Z,98582.45
2019-03-21T10:25:06.524Z,98584.03
2019-03-21T10:26:42.495Z,98579.28
2019-03-21T10:28:18.465Z,98577.20
2019-03-21T10:29:58.050Z,98559.07
2019-03-21T10:31:34.420Z,98561.28
2019-03-21T10:33:14.359Z,98558.86
2019-03-21T10:34:50.051Z,98560.63
2019-03-21T10:36:26.145Z,98555.39
2019-03-21T10:38:02.355Z,98547.64
2019-03-21T10:39:40.134Z,98559.84
2019-03-21T10:41:15.833Z,98559.31
2019-03-21T10:42:54.023Z,98564.39
2019-03-21T10:44:30.369Z,98561.30
2019-03-21T10:46:06.559Z,98552.78
2019-03-21T10:47:42.319Z,98562.59
2019-03-21T10:49:22.005Z,98557.28
2019-03-21T10:50:57.732Z,98560.64
2019-03-21T10:52:43.785Z,98558.50
2019-03-21T10:54:24.243Z,98557.80
2019-03-21T10:56:01.789Z,98554.45
2019-03-21T10:57:37.771Z,98556.95
2019-03-21T10:59:13.837Z,98556.22
2019-03-21T11:00:52.237Z,98547.16
2019-03-21T11:02:30.436Z,98547.52
2019-03-21T11:04:08.891Z,98545.28
2019-03-21T11:05:50.260Z,98540.98
2019-03-21T11:07:24.904Z,98548.44
2019-03-21T11:09:00.787Z,98542.68
2019-03-21T11:10:36.630Z,98538.75
2019-03-21T11:12:13.564Z,98541.17
2019-03-21T11:13:49.164Z,98541.67
2019-03-21T11:15:27.153Z,98538.37
2019-03-21T11:17:09.363Z,98533.14
2019-03-21T11:18:46.245Z,98532.67
2019-03-21T11:20:41.627Z,98525.27
2019-03-21T11:22:24.291Z,98529.22
2019-03-21T11:24:03.949Z,98527.67
2019-03-21T11:25:39.603Z,98528.53
2019-03-21T11:27:18.305Z,98524.50
2019-03-21T11:28:54.717Z,98521.58
2019-03-21T11:30:36.756Z,98515.98
2019-03-21T11:32:12.951Z,98513.17
2019-03-21T11:33:55.294Z,98521.89
2019-03-21T11:35:38.238Z,98524.23
2019-03-21T11:37:11.445Z,98521.41
2019-03-21T11:38:49.465Z,98521.94
2019-03-21T11:40:37.244Z,98516.58
2019-03-21T11:42:19.157Z,98514.53
2019-03-21T11:44:25.557Z,98510.48
2019-03-21T11:46:05.501Z,98516.43
2019-03-21T11:47:52.777Z,98516.44
2019-03-21T11:49:40.919Z,98510.45
2019-03-21T11:51:29.418Z,98502.05
2019-03-21T11:53:08.090Z,98501.59
2019-03-21T11:54:46.307Z,98500.30
2019-03-21T11:56:23.316Z,98498.53
2019-03-21T11:58:03.261Z,98493.61
2019-03-21T11:59:51.535Z,98488.69
2019-03-21T12:01:19.764Z,98490.73
2019-03-21T12:02:55.556Z,98487.38
2019-03-21T12:04:32.071Z,98483.39
2019-03-21T12:06:07.735Z,98476.39
2019-03-21T12:07:45.858Z,98475.93
2019-03-21T12:09:21.518Z,98470.91
2019-03-21T12:10:58.622Z,98469.52
2019-03-21T12:12:37.407Z,98474.52
2019-03-21T12:14:13.012Z,98468.67
2019-03-21T12:15:49.299Z,98468.19
2019-03-21T12:17:28.740Z,98466.34
2019-03-21T12:19:04.284Z,98473.12
2019-03-21T12:20:40.042Z,98470.94
2019-03-21T12:22:16.166Z,98471.95
2019-03-21T12:23:52.900Z,98473.66
2019-03-21T12:25:30.447Z,98472.36
2019-03-21T12:27:06.429Z,98473.05
2019-03-21T12:28:44.092Z,98469.39
2019-03-21T12:30:27.056Z,98459.53
2019-03-21T12:32:02.784Z,98467.45
2019-03-21T12:33:38.526Z,98466.23
2019-03-21T12:35:21.070Z,98463.11
2019-03-21T12:37:06.665Z,98461.63
2019-03-21T12:38:44.674Z,98462.42
2019-03-21T12:40:20.972Z,98459.91
2019-03-21T12:42:02.735Z,98452.72
2019-03-21T12:43:40.520Z,98453.66
2019-03-21T12:45:19.833Z,98454.20
2019-03-21T12:47:02.040Z,98446.92
2019-03-21T12:48:42.680Z,98452.13
2019-03-21T12:50:21.387Z,98453.70
2019-03-21T12:51:58.628Z,98453.99
2019-03-21T12:53:34.359Z,98453.87
2019-03-21T12:55:13.556Z,98450.05
2019-03-21T12:56:49.693Z,98455.13
2019-03-21T12:58:25.442Z,98450.00
2019-03-21T13:00:01.140Z,98448.41
2019-03-21T13:01:45.933Z,98445.64
2019-03-21T13:03:45.480Z,98447.53
2019-03-21T13:05:32.263Z,98448.25
2019-03-21T13:07:11.522Z,98448.08
2019-03-21T13:08:51.561Z,98442.75
2019-03-21T13:10:33.607Z,98441.95
2019-03-21T13:12:32.648Z,98443.17
2019-03-21T13:14:20.355Z,98437.47
2019-03-21T13:15:58.399Z,98430.83
2019-03-21T13:17:37.249Z,98435.09
2019-03-21T13:19:28.021Z,98437.20
2019-03-21T13:21:00.507Z,98435.91
2019-03-21T13:22:36.508Z,98423.39
2019-03-21T13:24:12.640Z,98423.50
2019-03-21T13:25:48.474Z,98423.30
2019-03-21T13:27:26.891Z,98419.63
2019-03-21T13:29:03.156Z,98423.47
2019-03-21T13:30:40.602Z,98415.73
2019-03-21T13:32:20.511Z,98409.97
2019-03-21T13:33:58.475Z,98409.77
2019-03-21T13:35:34.282Z,98400.61
2019-03-21T13:37:12.424Z,98405.70
2019-03-21T13:38:48.177Z,98405.70
2019-03-21T13:40:24.975Z,98406.71
2019-03-21T13:42:00.784Z,98406.79
2019-03-21T13:43:39.333Z,98405.58
2019-03-21T13:45:16.432Z,98398.05
2019-03-21T13:46:54.075Z,98403.31
2019-03-21T13:48:32.283Z,98399.56
2019-03-21T13:50:08.080Z,98403.17
2019-03-21T13:51:49.489Z,98396.55
2019-03-21T13:53:28.567Z,98390.84
2019-03-21T13:55:04.491Z,98397.20
2019-03-21T13:56:40.369Z,98397.81
2019-03-21T13:58:15.996Z,98396.73
2019-03-21T13:59:51.976Z,98393.41
2019-03-21T14:01:27.665Z,98389.73
2019-03-21T14:03:05.821Z,98392.50
2019-03-21T14:04:41.464Z,98389.74
2019-03-21T14:06:19.815Z,98386.41
2019-03-21T14:07:55.270Z,98385.31
2019-03-21T14:09:34.357Z,98384.77
2019-03-21T14:11:15.779Z,98376.75
2019-03-21T14:12:56.485Z,98373.03
2019-03-21T14:14:33.395Z,98378.70
2019-03-21T14:16:15.474Z,98377.13
2019-03-21T14:17:54.330Z,98374.87
2019-03-21T14:19:32.981Z,98372.80
2019-03-21T14:21:15.215Z,98373.93
2019-03-21T14:23:18.313Z,98372.52
2019-03-21T14:24:57.395Z,98359.84
2019-03-21T14:26:35.267Z,98364.38
2019-03-21T14:28:14.236Z,98366.34
2019-03-21T14:30:01.376Z,98352.12
2019-03-21T14:31:35.680Z,98358.23
2019-03-21T14:33:17.917Z,98352.12
2019-03-21T14:34:53.446Z,98353.38
2019-03-21T14:36:31.742Z,98361.45
2019-03-21T14:38:13.263Z,98356.73
2019-03-21T14:39:51.385Z,98351.64
2019-03-21T14:41:29.023Z,98347.17
2019-03-21T14:43:05.518Z,98351.12
2019-03-21T14:44:43.519Z,98350.23
2019-03-21T14:46:25.582Z,98351.55
2019-03-21T14:48:01.606Z,98348.23
2019-03-21T14:49:38.008Z,98349.89
2019-03-21T14:51:13.816Z,98350.68
2019-03-21T14:52:50.050Z,98350.33
2019-03-21T14:54:25.803Z,98348.25
2019-03-21T14:56:01.947Z,98348.99
2019-03-21T14:57:37.847Z,98343.58
2019-03-21T14:59:13.850Z,98351.78
2019-03-21T15:00:53.304Z,98348.88
2019-03-21T15:02:35.879Z,98347.13
2019-03-21T15:04:12.347Z,98351.01
2019-03-21T15:05:48.543Z,98349.00
2019-03-21T15:07:27.708Z,98345.58
2019-03-21T15:09:04.473Z,98350.26
2019-03-21T15:10:45.126Z,98347.02
2019-03-21T15:12:25.860Z,98344.41
2019-03-21T15:14:06.729Z,98343.05
2019-03-21T15:15:44.709Z,98345.19
2019-03-21T15:17:20.900Z,98342.38
2019-03-21T15:19:01.317Z,98341.28
2019-03-21T15:20:37.081Z,98340.61
2019-03-21T15:22:14.235Z,98343.31
2019-03-21T15:23:59.414Z,98341.72
2019-03-21T15:25:34.450Z,98341.14
2019-03-21T15:27:12.009Z,98341.13
2019-03-21T15:28:51.007Z,98332.20
2019-03-21T15:30:29.597Z,98335.90
2019-03-21T15:32:06.370Z,98327.61
2019-03-21T15:33:46.238Z,98330.39
2019-03-21T15:35:27.813Z,98326.77
2019-03-21T15:37:08.747Z,98328.19
2019-03-21T15:39:03.036Z,98328.55
2019-03-21T15:40:42.226Z,98319.08
2019-03-21T15:42:21.813Z,98319.84
2019-03-21T15:44:04.081Z,98324.20
2019-03-21T15:45:40.670Z,98319.16
2019-03-21T15:47:16.587Z,98324.63
2019-03-21T15:48:55.356Z,98313.77
2019-03-21T15:50:45.977Z,98315.47
2019-03-21T15:52:27.734Z,98311.42
2019-03-21T15:54:05.367Z,98311.05
2019-03-21T15:55:45.478Z,98313.98
2019-03-21T15:57:21.318Z,98312.64
2019-03-21T15:59:01.522Z,98309.63
2019-03-21T16:00:43.140Z,98310.81
2019-03-21T16:02:21.062Z,98314.70
2019-03-21T16:04:02.440Z,98314.70
2019-03-21T16:05:41.966Z,98309.60
2019-03-21T16:07:23.922Z,98310.81
2019-03-21T16:08:59.730Z,98311.32
2019-03-21T16:10:38.756Z,98320.02
2019-03-21T16:12:15.328Z,98315.85
2019-03-21T16:13:59.167Z,98316.80
2019-03-21T16:15:44.836Z,98313.09
2019-03-21T16:17:23.471Z,98312.16
2019-03-21T16:19:03.270Z,98313.81
2019-03-21T16:20:42.436Z,98307.96
2019-03-21T16:22:24.870Z,98312.08
2019-03-21T16:24:12.526Z,98315.52
2019-03-21T16:26:00.064Z,98309.69
2019-03-21T16:27:41.673Z,98310.66
2019-03-21T16:29:19.458Z,98309.05
2019-03-21T16:31:00.859Z,98314.80
2019-03-21T16:32:46.530Z,98312.16
2019-03-21T16:34:23.429Z,98314.05
2019-03-21T16:36:30.359Z,98313.48
2019-03-21T16:40:07.387Z,98315.20
2019-03-21T16:41:53.882Z,98312.67
2019-03-21T16:43:37.911Z,98317.34
2019-03-21T16:45:21.284Z,98314.41
2019-03-21T16:47:01.424Z,98315.90
2019-03-21T16:48:44.310Z,98312.73
2019-03-21T16:50:33.008Z,98312.47
2019-03-21T16:52:09.343Z,98318.53
2019-03-21T16:53:49.969Z,98308.73
2019-03-21T16:55:43.936Z,98312.05
2019-03-21T16:57:26.232Z,98313.34
2019-03-21T16:59:07.441Z,98315.87
2019-03-21T17:00:44.374Z,98316.57
2019-03-21T17:02:24.136Z,98320.02
2019-03-21T17:04:17.902Z,98323.63
2019-03-21T17:05:59.239Z,98327.53
2019-03-21T17:07:43.038Z,98320.82
2019-03-21T17:09:35.756Z,98318.10
2019-03-21T17:11:13.041Z,98329.20
2019-03-21T17:12:54.929Z,98334.55
2019-03-21T17:14:32.374Z,98328.47
2019-03-21T17:16:17.985Z,98327.25
2019-03-21T17:17:59.170Z,98327.85
2019-03-21T17:19:41.873Z,98326.75
2019-03-21T17:21:20.127Z,98324.44
2019-03-21T17:23:02.465Z,98326.84
2019-03-21T17:24:41.973Z,98332.95
2019-03-21T17:26:29.959Z,98329.90
2019-03-21T17:30:22.136Z,98330.95
2019-03-21T17:31:59.954Z,98340.81
2019-03-21T17:33:36.538Z,98341.35
2019-03-21T17:35:12.896Z,98337.88
2019-03-21T17:36:52.693Z,98340.66
2019-03-21T17:38:32.192Z,98343.68
2019-03-21T17:40:17.751Z,98341.86
2019-03-21T17:42:11.909Z,98330.34
2019-03-21T17:43:55.251Z,98332.46
2019-03-21T17:45:39.092Z,98334.13
2019-03-21T17:47:34.967Z,98341.93
2019-03-21T17:49:23.638Z,98337.47
2019-03-21T17:51:06.039Z,98342.91
2019-03-21T17:52:51.235Z,98344.10
2019-03-21T17:54:40.990Z,98346.94
2019-03-21T17:56:13.097Z,98344.74
2019-03-21T17:57:58.580Z,98350.39
2019-03-21T17:59:41.164Z,98356.92
2019-03-21T18:01:25.261Z,98354.53
2019-03-21T18:03:05.151Z,98355.09
2019-03-21T18:04:44.781Z,98360.95
2019-03-21T18:06:22.353Z,98363.51
2019-03-21T18:07:59.519Z,98356.22
2019-03-21T18:09:45.915Z,98358.36
2019-03-21T18:11:30.261Z,98368.27
2019-03-21T18:13:16.701Z,98359.44
2019-03-21T18:14:55.855Z,98354.56
2019-03-21T18:16:44.947Z,98366.49
2019-03-21T18:18:32.315Z,98359.61
2019-03-21T18:20:08.214Z,98363.05
2019-03-21T18:21:45.052Z,98374.79
2019-03-21T18:23:31.721Z,98378.21
2019-03-21T18:25:41.644Z,98375.20
2019-03-21T18:27:19.482Z,98377.27
2019-03-21T18:29:10.738Z,98376.31
2019-03-21T18:30:55.468Z,98373.88
2019-03-21T18:32:35.308Z,98374.30
2019-03-21T18:34:12.321Z,98377.77
2019-03-21T18:36:09.859Z,98370.60
2019-03-21T18:37:55.507Z,98377.36
2019-03-21T18:39:41.133Z,98377.34
2019-03-21T18:41:24.129Z,98379.49
2019-03-21T18:43:06.470Z,98382.73
2019-03-21T18:44:46.848Z,98380.86
2019-03-21T18:46:29.897Z,98376.77
2019-03-21T18:48:06.811Z,98378.92
2019-03-21T18:49:46.289Z,98381.25
2019-03-21T18:51:26.112Z,98383.20
2019-03-21T18:53:04.125Z,98381.67
2019-03-21T18:54:39.772Z,98387.80
2019-03-21T18:56:16.624Z,98387.02
2019-03-21T18:57:53.329Z,98395.80
2019-03-21T18:59:33.409Z,98380.08
2019-03-21T19:01:21.929Z,98382.07
2019-03-21T19:03:00.797Z,98380.50
2019-03-21T19:04:47.663Z,98381.91
2019-03-21T19:06:31.286Z,98380.95
2019-03-21T19:08:24.982Z,98382.19
2019-03-21T19:10:02.965Z,98385.33
2019-03-21T19:11:43.325Z,98387.08
2019-03-21T19:13:25.473Z,98386.37
2019-03-21T19:15:15.402Z,98386.49
2019-03-21T19:16:55.152Z,98381.62
2019-03-21T19:18:33.419Z,98384.36
2019-03-21T19:20:11.151Z,98385.40
2019-03-21T19:21:50.462Z,98383.28
2019-03-21T19:23:27.012Z,98388.78
2019-03-21T19:25:03.639Z,98383.19
2019-03-21T19:26:41.525Z,98390.01
2019-03-21T19:28:25.914Z,98382.43
2019-03-21T19:30:10.274Z,98385.01
2019-03-21T19:31:50.525Z,98388.91
2019-03-21T19:33:33.248Z,98388.72
2019-03-21T19:35:11.601Z,98390.12